createdAt,value
2022-11-24T00:01:16.630Z,100710.28
2022-11-24T00:03:45.501Z,100729.56
2022-11-24T00:06:15.980Z,100745.34
2022-11-24T00:08:46.549Z,100747.06
2022-11-24T00:11:17.501Z,100753.19
2022-11-24T00:13:47.542Z,100764.63
2022-11-24T00:16:16.566Z,100791.75
2022-11-24T00:18:46.530Z,100790.84
2022-11-24T00:21:15.391Z,100796.09
2022-11-24T00:23:43.390Z,100816.25
2022-11-24T00:26:13.181Z,100816.25
2022-11-24T00:28:42.662Z,100830.25
2022-11-24T00:31:18.467Z,100828.50
2022-11-24T00:33:47.745Z,100828.47
2022-11-24T00:36:16.166Z,100841.63
2022-11-24T00:38:44.356Z,100853.88
2022-11-24T00:41:12.405Z,100872.25
2022-11-24T00:43:40.559Z,100874.88
2022-11-24T00:46:08.517Z,100893.22
2022-11-24T00:48:37.928Z,100877.47
2022-11-24T00:51:07.459Z,100887.97
2022-11-24T00:53:36.409Z,100897.56
2022-11-24T00:56:05.042Z,100893.16
2022-11-24T00:58:33.735Z,100889.66
2022-11-24T01:01:04.794Z,100885.28
2022-11-24T01:03:34.055Z,100881.78
2022-11-24T01:06:08.314Z,100886.13
2022-11-24T01:08:37.862Z,100896.66
2022-11-24T01:11:11.140Z,100904.50
2022-11-24T01:13:39.783Z,100897.47
2022-11-24T01:16:08.989Z,100892.22
2022-11-24T01:18:37.194Z,100889.56
2022-11-24T01:21:10.133Z,100876.47
2022-11-24T01:23:38.439Z,100891.34
2022-11-24T01:26:07.397Z,100890.44
2022-11-24T01:28:35.577Z,100893.06
2022-11-24T01:31:06.501Z,100881.69
2022-11-24T01:33:34.855Z,100885.22
2022-11-24T01:36:03.180Z,100879.09
2022-11-24T01:38:33.003Z,100873.88
2022-11-24T01:41:05.591Z,100897.53
2022-11-24T01:43:34.523Z,100884.47
2022-11-24T01:46:08.084Z,100923.91
2022-11-24T01:48:39.955Z,100919.56
2022-11-24T01:51:11.625Z,100942.34
2022-11-24T01:53:43.150Z,100956.34
2022-11-24T01:56:14.054Z,100963.34
2022-11-24T01:58:46.538Z,100985.28
2022-11-24T02:01:14.944Z,100993.19
2022-11-24T02:03:47.367Z,100981.75
2022-11-24T02:06:20.245Z,101005.38
2022-11-24T02:08:54.202Z,100980.00
2022-11-24T02:11:24.891Z,101009.78
2022-11-24T02:13:54.878Z,101001.91
2022-11-24T02:16:22.972Z,100994.00
2022-11-24T02:18:50.969Z,101003.63
2022-11-24T02:21:19.846Z,100988.72
2022-11-24T02:23:56.949Z,101011.47
2022-11-24T02:26:40.602Z,100996.59
2022-11-24T02:29:09.576Z,101019.34
2022-11-24T02:31:37.637Z,101014.97
2022-11-24T02:34:05.610Z,100992.19
2022-11-24T02:36:33.494Z,101009.69
2022-11-24T02:39:01.396Z,100985.16
2022-11-24T02:41:31.688Z,100986.94
2022-11-24T02:44:02.715Z,100988.63
2022-11-24T02:46:30.717Z,101008.78
2022-11-24T02:48:59.044Z,100991.22
2022-11-24T02:51:26.971Z,100977.19
2022-11-24T02:53:54.754Z,100989.44
2022-11-24T02:56:22.717Z,100985.09
2022-11-24T02:58:52.030Z,100966.66
2022-11-24T03:01:20.075Z,100960.56
2022-11-24T03:03:48.193Z,100943.09
2022-11-24T03:06:16.159Z,100963.25
2022-11-24T03:08:44.094Z,100991.38
2022-11-24T03:11:12.266Z,101001.00
2022-11-24T03:13:40.120Z,101023.78
2022-11-24T03:16:11.546Z,101042.19
2022-11-24T03:18:39.586Z,101050.91
2022-11-24T03:21:08.452Z,101046.50
2022-11-24T03:23:36.492Z,101032.47
2022-11-24T03:26:11.664Z,101032.47
2022-11-24T03:28:39.790Z,101013.16
2022-11-24T03:31:08.255Z,101024.56
2022-11-24T03:33:37.596Z,101035.91
2022-11-24T03:36:07.021Z,101023.59
2022-11-24T03:38:35.020Z,101025.31
2022-11-24T03:41:02.906Z,100999.00
2022-11-24T03:43:30.746Z,100987.56
2022-11-24T03:45:58.634Z,100969.09
2022-11-24T03:48:28.430Z,100953.28
2022-11-24T03:51:00.643Z,100943.59
2022-11-24T03:53:30.282Z,100914.59
2022-11-24T03:55:59.031Z,100898.78
2022-11-24T03:58:27.123Z,100875.94
2022-11-24T04:00:56.096Z,100886.41
2022-11-24T04:03:24.433Z,100844.31
2022-11-24T04:05:52.534Z,100812.75
2022-11-24T04:08:21.913Z,100783.78
2022-11-24T04:10:52.069Z,100745.22
2022-11-24T04:13:21.138Z,100721.56
2022-11-24T04:15:49.085Z,100683.97
2022-11-24T04:18:17.222Z,100675.28
2022-11-24T04:20:45.343Z,100684.13
2022-11-24T04:23:13.233Z,100698.19
2022-11-24T04:25:43.619Z,100725.31
2022-11-24T04:28:11.714Z,100735.78
2022-11-24T04:30:44.526Z,100747.22
2022-11-24T04:33:13.467Z,100757.72
2022-11-24T04:35:41.262Z,100755.94
2022-11-24T04:38:09.115Z,100769.13
2022-11-24T04:40:36.898Z,100735.84
2022-11-24T04:43:06.085Z,100763.91
2022-11-24T04:45:33.780Z,100747.25
2022-11-24T04:48:01.577Z,100743.81
2022-11-24T04:50:29.444Z,100770.09
2022-11-24T04:52:57.666Z,100736.78
2022-11-24T04:55:25.354Z,100743.03
2022-11-24T04:57:53.122Z,100808.69
2022-11-24T05:00:22.614Z,100821.84
2022-11-24T05:02:50.517Z,100813.09
2022-11-24T05:05:18.488Z,100830.59
2022-11-24T05:07:46.335Z,100813.94
2022-11-24T05:10:32.034Z,100807.88
2022-11-24T05:13:00.310Z,100813.13
2022-11-24T05:15:29.392Z,100790.38
2022-11-24T05:17:57.893Z,100804.47
2022-11-24T05:20:26.168Z,100822.03
2022-11-24T05:22:54.037Z,100788.78
2022-11-24T05:25:21.829Z,100799.31
2022-11-24T05:27:49.628Z,100824.75
2022-11-24T05:30:17.577Z,100818.66
2022-11-24T05:32:46.723Z,100838.78
2022-11-24T05:35:14.491Z,100823.00
2022-11-24T05:37:42.279Z,100836.16
2022-11-24T05:40:10.541Z,100836.16
2022-11-24T05:42:47.804Z,100860.72
2022-11-24T05:45:18.332Z,100856.31
2022-11-24T05:47:48.536Z,100835.31
2022-11-24T05:50:18.507Z,100874.69
2022-11-24T05:52:46.336Z,100843.19
2022-11-24T05:55:15.787Z,100853.69
2022-11-24T05:57:43.718Z,100844.97
2022-11-24T06:00:13.224Z,100818.69
2022-11-24T06:02:41.258Z,100811.72
2022-11-24T06:05:10.630Z,100838.91
2022-11-24T06:07:38.541Z,100863.44
2022-11-24T06:10:06.804Z,100885.31
2022-11-24T06:12:34.567Z,100879.19
2022-11-24T06:15:02.489Z,100918.59
2022-11-24T06:17:30.428Z,100901.06
2022-11-24T06:19:58.157Z,100879.16
2022-11-24T06:22:27.337Z,100895.78
2022-11-24T06:24:55.195Z,100884.41
2022-11-24T06:27:23.201Z,100874.72
2022-11-24T06:29:51.353Z,100876.47
2022-11-24T06:32:19.245Z,100854.53
2022-11-24T06:34:47.141Z,100857.13
2022-11-24T06:37:15.197Z,100853.63
2022-11-24T06:39:44.380Z,100825.56
2022-11-24T06:42:12.213Z,100837.81
2022-11-24T06:44:40.354Z,100818.50
2022-11-24T06:47:08.201Z,100814.97
2022-11-24T06:49:35.901Z,100807.09
2022-11-24T06:52:03.744Z,100831.53
2022-11-24T06:54:31.741Z,100805.19
2022-11-24T06:57:01.522Z,100802.50
2022-11-24T06:59:29.424Z,100788.47
2022-11-24T07:02:00.349Z,100763.91
2022-11-24T07:04:28.238Z,100736.75
2022-11-24T07:06:55.990Z,100753.38
2022-11-24T07:09:23.819Z,100763.91
2022-11-24T07:11:51.769Z,100774.38
2022-11-24T07:14:21.059Z,100758.56
2022-11-24T07:16:49.039Z,100729.63
2022-11-24T07:19:21.593Z,100714.72
2022-11-24T07:21:52.827Z,100722.69
2022-11-24T07:24:20.661Z,100699.94
2022-11-24T07:26:48.512Z,100764.75
2022-11-24T07:29:16.442Z,100758.56
2022-11-24T07:31:46.462Z,100734.03
2022-11-24T07:34:15.490Z,100754.16
2022-11-24T07:36:45.200Z,100769.03
2022-11-24T07:39:13.203Z,100797.88
2022-11-24T07:41:40.965Z,100743.53
2022-11-24T07:44:09.225Z,100764.47
2022-11-24T07:46:37.380Z,100751.31
2022-11-24T07:49:06.669Z,100741.63
2022-11-24T07:51:34.483Z,100707.53
2022-11-24T07:54:02.370Z,100726.84
2022-11-24T07:56:30.301Z,100740.84
2022-11-24T07:58:58.291Z,100726.94
2022-11-24T08:01:26.391Z,100753.19
2022-11-24T08:03:54.358Z,100768.03
2022-11-24T08:06:26.513Z,100776.75
2022-11-24T08:08:56.953Z,100756.59
2022-11-24T08:11:25.464Z,100794.19
2022-11-24T08:13:53.505Z,100779.16
2022-11-24T08:16:24.405Z,100787.84
2022-11-24T08:18:53.752Z,100765.84
2022-11-24T08:21:23.887Z,100753.38
2022-11-24T08:55:40.496Z,100696.38
2022-11-24T08:58:09.641Z,100733.13
2022-11-24T09:00:39.544Z,100734.81
2022-11-24T09:03:08.650Z,100764.53
2022-11-24T09:05:51.786Z,100781.97
2022-11-24T09:08:20.684Z,100731.16
2022-11-24T09:10:48.711Z,100710.09
2022-11-24T09:13:20.822Z,100730.22
2022-11-24T09:15:48.615Z,100722.25
2022-11-24T09:18:16.403Z,100701.91
2022-11-24T09:20:45.327Z,100690.53
2022-11-24T09:23:13.486Z,100754.41
2022-11-24T09:25:41.637Z,100723.59
2022-11-24T09:28:09.606Z,100755.06
2022-11-24T09:30:38.967Z,100779.31
2022-11-24T09:33:06.755Z,100784.25
2022-11-24T09:35:39.587Z,100753.16
2022-11-24T09:38:10.434Z,100698.50
2022-11-24T09:40:38.599Z,100683.38
2022-11-24T09:43:17.937Z,100667.50
2022-11-24T09:46:07.690Z,100654.09
2022-11-24T09:48:40.294Z,100628.50
2022-11-24T09:51:12.632Z,100638.13
2022-11-24T09:53:45.634Z,100614.31
2022-11-24T09:56:20.720Z,100608.97
2022-11-24T09:58:51.122Z,100580.84
2022-11-24T10:01:25.831Z,100608.03
2022-11-24T10:03:54.779Z,100629.94
2022-11-24T10:06:26.064Z,100611.47
2022-11-24T10:09:15.494Z,100612.16
2022-11-24T10:11:49.957Z,100582.66
2022-11-24T10:14:43.198Z,100637.78
2022-11-24T10:17:23.745Z,100646.63
2022-11-24T10:19:57.517Z,100652.59
2022-11-24T10:22:40.264Z,100620.94
2022-11-24T10:25:22.407Z,100626.94
2022-11-24T10:27:55.831Z,100613.91
2022-11-24T10:30:25.828Z,100668.22
2022-11-24T10:32:59.453Z,100654.09
2022-11-24T10:35:31.700Z,100670.59
2022-11-24T10:38:12.652Z,100668.66
2022-11-24T10:40:59.309Z,100660.56
2022-11-24T10:43:32.950Z,100629.06
2022-11-24T10:46:09.471Z,100606.28
2022-11-24T10:48:45.009Z,100683.47
2022-11-24T10:51:45.196Z,100667.47
2022-11-24T10:54:20.838Z,100685.78
2022-11-24T10:56:51.454Z,100637.53
2022-11-24T10:59:33.537Z,100679.78
2022-11-24T11:02:02.265Z,100687.56
2022-11-24T11:04:34.041Z,100656.88
2022-11-24T11:07:18.220Z,100633.22
2022-11-24T11:09:46.669Z,100711.22
2022-11-24T11:15:33.025Z,100658.28
2022-11-24T11:18:05.770Z,100665.25
2022-11-24T11:20:36.976Z,100689.69
2022-11-24T11:23:16.003Z,100634.47
2022-11-24T11:25:43.845Z,100668.75
2022-11-24T11:28:22.925Z,100652.91
2022-11-24T11:34:07.222Z,100677.50
2022-11-24T11:36:41.964Z,100652.06
2022-11-24T11:39:21.495Z,100648.81
2022-11-24T11:41:53.085Z,100649.91
2022-11-24T11:44:34.272Z,100703.38
2022-11-24T11:47:12.284Z,100664.09
2022-11-24T11:49:43.915Z,100723.00
2022-11-24T11:52:32.639Z,100738.81
2022-11-24T11:55:20.910Z,100746.75
2022-11-24T11:58:00.619Z,100785.28
2022-11-24T12:00:28.699Z,100801.13
2022-11-24T12:03:17.673Z,100791.25
2022-11-24T12:05:52.135Z,100793.91
2022-11-24T12:08:49.544Z,100828.75
2022-11-24T12:11:26.793Z,100793.41
2022-11-24T12:14:11.756Z,100741.50
2022-11-24T12:16:48.968Z,100765.16
2022-11-24T12:19:37.849Z,100739.91
2022-11-24T12:22:14.805Z,100730.44
2022-11-24T12:24:57.143Z,100794.53
2022-11-24T12:27:40.415Z,100769.88
2022-11-24T12:30:13.663Z,100832.91
2022-11-24T12:32:55.206Z,100791.66
2022-11-24T12:35:31.236Z,100796.81
2022-11-24T12:38:06.648Z,100777.41
2022-11-24T12:41:06.475Z,100777.53
2022-11-24T12:49:56.008Z,100802.91
2022-11-24T12:52:27.248Z,100817.63
2022-11-24T12:54:56.885Z,100835.91
2022-11-24T12:57:31.677Z,100811.22
2022-11-24T13:00:05.254Z,100796.19
2022-11-24T13:02:49.900Z,100795.44
2022-11-24T13:05:25.598Z,100815.47
2022-11-24T13:07:58.502Z,100816.28
2022-11-24T13:13:24.398Z,100771.63
2022-11-24T13:19:09.993Z,100855.25
2022-11-24T13:21:51.736Z,100877.22
2022-11-24T13:24:25.125Z,100852.50
2022-11-24T13:26:54.766Z,100858.66
2022-11-24T13:29:35.184Z,100855.09
2022-11-24T13:32:44.521Z,100806.78
2022-11-24T13:35:16.059Z,100808.78
2022-11-24T13:37:52.887Z,100853.72
2022-11-24T13:40:54.371Z,100867.88
2022-11-24T13:43:27.824Z,100907.50
2022-11-24T13:45:57.378Z,100936.41
2022-11-24T13:48:55.158Z,100906.53
2022-11-24T13:51:24.731Z,100912.66
2022-11-24T13:53:55.734Z,100942.44
2022-11-24T13:56:29.633Z,100925.72
2022-11-24T13:59:00.711Z,100942.38
2022-11-24T14:01:32.368Z,100897.63
2022-11-24T14:04:29.816Z,100906.41
2022-11-24T14:09:51.989Z,100933.41
2022-11-24T14:12:21.937Z,100922.03
2022-11-24T14:14:51.157Z,100912.22
2022-11-24T14:17:23.100Z,100867.66
2022-11-24T14:19:52.725Z,100858.19
2022-11-24T14:22:22.994Z,100844.41
2022-11-24T14:24:56.213Z,100864.88
2022-11-24T14:27:30.574Z,100925.66
2022-11-24T14:30:00.699Z,100932.78
2022-11-24T14:32:30.014Z,100955.69
2022-11-24T14:34:57.976Z,100956.59
2022-11-24T14:37:25.799Z,100989.06
2022-11-24T14:39:53.780Z,101019.75
2022-11-24T14:42:24.137Z,101027.47
2022-11-24T14:44:54.265Z,101017.63
2022-11-24T14:47:32.269Z,100982.34
2022-11-24T14:50:12.678Z,100969.84
2022-11-24T14:52:46.852Z,100963.56
2022-11-24T14:55:29.049Z,100936.31
2022-11-24T14:57:57.311Z,100943.28
2022-11-24T15:00:30.398Z,100897.56
2022-11-24T15:03:20.612Z,100882.63
2022-11-24T15:05:54.163Z,100886.38
2022-11-24T15:08:23.615Z,100927.59
2022-11-24T15:10:58.756Z,100917.84
2022-11-24T15:13:27.124Z,100900.28
2022-11-24T15:16:02.447Z,100907.41
2022-11-24T15:18:37.955Z,100899.66
2022-11-24T15:21:05.847Z,100900.66
2022-11-24T15:23:35.139Z,100942.03
2022-11-24T15:26:30.279Z,100939.50
2022-11-24T15:29:00.041Z,100987.84
2022-11-24T15:31:28.272Z,100989.59
2022-11-24T15:33:57.500Z,100962.47
2022-11-24T15:36:25.321Z,101028.34
2022-11-24T15:38:53.406Z,101030.13
2022-11-24T15:41:23.036Z,101044.94
2022-11-24T15:43:51.001Z,101003.56
2022-11-24T15:46:19.225Z,100974.66
2022-11-24T15:48:47.082Z,100980.91
2022-11-24T15:51:16.952Z,101010.88
2022-11-24T15:53:47.178Z,101019.63
2022-11-24T15:56:20.247Z,101002.03
2022-11-24T15:58:48.512Z,100982.81
2022-11-24T16:01:16.440Z,101015.41
2022-11-24T16:03:47.575Z,101008.34
2022-11-24T16:06:24.509Z,101043.47
2022-11-24T16:08:53.115Z,101049.53
2022-11-24T16:11:20.899Z,101032.69
2022-11-24T16:13:52.788Z,101028.19
2022-11-24T16:16:22.571Z,100986.00
2022-11-24T16:18:50.794Z,100970.22
2022-11-24T16:21:20.175Z,100945.00
2022-11-24T16:23:48.814Z,100934.63
2022-11-24T16:26:16.760Z,100952.34
2022-11-24T16:28:45.765Z,100990.31
2022-11-24T16:31:15.828Z,101036.03
2022-11-24T16:33:44.759Z,101064.22
2022-11-24T16:36:12.954Z,101066.78
2022-11-24T16:38:42.897Z,101039.44
2022-11-24T16:41:11.003Z,100979.78
2022-11-24T16:43:39.053Z,100997.44
2022-11-24T16:46:19.077Z,100994.88
2022-11-24T16:48:48.195Z,101005.47
2022-11-24T16:51:16.702Z,100979.28
2022-11-24T16:53:46.144Z,100993.50
2022-11-24T16:56:14.756Z,101006.03
2022-11-24T16:58:42.456Z,101037.78
2022-11-24T17:01:12.055Z,101045.81
2022-11-24T17:03:40.914Z,101066.09
2022-11-24T17:06:11.255Z,101088.13
2022-11-24T17:08:40.451Z,101111.00
2022-11-24T17:11:10.735Z,101114.56
2022-11-24T17:13:39.244Z,101147.94
2022-11-24T17:16:08.769Z,101156.72
2022-11-24T17:18:37.233Z,101168.13
2022-11-24T17:21:09.436Z,101150.47
2022-11-24T17:23:41.198Z,101159.25
2022-11-24T17:26:13.121Z,101158.34
2022-11-24T17:28:41.197Z,101142.53
2022-11-24T17:31:09.761Z,101144.34
2022-11-24T17:33:37.914Z,101152.22
2022-11-24T17:36:07.540Z,101163.56
2022-11-24T17:38:35.997Z,101163.53
2022-11-24T17:41:03.772Z,101139.75
2022-11-24T17:43:32.955Z,101146.81
2022-11-24T17:46:02.162Z,101145.09
2022-11-24T17:48:30.832Z,101130.25
2022-11-24T17:51:03.254Z,101168.06
2022-11-24T17:53:31.696Z,101159.28
2022-11-24T17:56:02.919Z,101166.38
2022-11-24T17:58:34.008Z,101155.00
2022-11-24T18:01:03.177Z,101166.50
2022-11-24T18:03:32.421Z,101170.09
2022-11-24T18:06:05.920Z,101176.25
2022-11-24T18:08:34.224Z,101148.25
2022-11-24T18:11:06.356Z,101161.56
2022-11-24T18:13:55.597Z,101174.00
2022-11-24T18:16:24.255Z,101177.66
2022-11-24T18:19:07.308Z,101190.00
2022-11-24T18:21:35.937Z,101207.72
2022-11-24T18:24:03.717Z,101215.66
2022-11-24T18:26:31.423Z,101246.50
2022-11-24T18:29:00.949Z,101240.38
2022-11-24T18:31:29.423Z,101237.81
2022-11-24T18:33:57.294Z,101251.94
2022-11-24T18:36:29.933Z,101259.06
2022-11-24T18:38:58.909Z,101269.63
2022-11-24T18:41:27.080Z,101273.19
2022-11-24T18:43:54.810Z,101278.56
2022-11-24T18:46:24.052Z,101293.53
2022-11-24T18:48:53.245Z,101285.66
2022-11-24T18:51:22.799Z,101291.03
2022-11-24T18:53:54.308Z,101305.13
2022-11-24T18:56:22.526Z,101321.91
2022-11-24T18:58:53.890Z,101322.81
2022-11-24T19:01:24.961Z,101317.59
2022-11-24T19:03:54.720Z,101334.34
2022-11-24T19:06:24.396Z,101350.19
2022-11-24T19:08:54.451Z,101363.44
2022-11-24T19:11:23.877Z,101359.94
2022-11-24T19:13:54.098Z,101382.84
2022-11-24T19:16:24.447Z,101410.97
2022-11-24T19:18:54.550Z,101414.53
2022-11-24T19:21:22.957Z,101431.25
2022-11-24T19:23:51.274Z,101449.75
2022-11-24T19:26:19.601Z,101449.78
2022-11-24T19:28:47.369Z,101484.03
2022-11-24T19:31:17.129Z,101486.69
2022-11-24T19:33:46.588Z,101499.91
2022-11-24T19:36:16.317Z,101515.75
2022-11-24T19:38:49.864Z,101511.38
2022-11-24T19:41:20.112Z,101519.31
2022-11-24T19:43:49.079Z,101530.75
2022-11-24T19:46:18.550Z,101525.53
2022-11-24T19:48:50.023Z,101544.84
2022-11-24T19:51:19.586Z,101537.84
2022-11-24T19:53:47.606Z,101560.75
2022-11-24T19:56:17.447Z,101574.81
2022-11-24T19:58:45.912Z,101570.44
2022-11-24T20:01:15.587Z,101556.41
2022-11-24T20:03:44.953Z,101553.81
2022-11-24T20:06:15.672Z,101603.03
2022-11-24T20:08:44.350Z,101626.75
2022-11-24T20:11:14.199Z,101640.81
2022-11-24T20:13:43.629Z,101641.69
2022-11-24T20:16:13.393Z,101650.50
2022-11-24T20:18:43.910Z,101669.88
2022-11-24T20:21:14.981Z,101670.75
2022-11-24T20:23:43.893Z,101675.19
2022-11-24T20:26:14.917Z,101684.84
2022-11-24T20:28:43.137Z,101697.16
2022-11-24T20:31:13.654Z,101725.31
2022-11-24T20:33:42.109Z,101734.97
2022-11-24T20:36:12.003Z,101733.25
2022-11-24T20:38:44.123Z,101736.75
2022-11-24T20:41:14.557Z,101749.94
2022-11-24T20:43:43.055Z,101753.47
2022-11-24T20:46:13.700Z,101757.84
2022-11-24T20:48:45.042Z,101735.03
2022-11-24T20:51:14.444Z,101768.44
2022-11-24T20:53:43.527Z,101759.66
2022-11-24T20:56:13.785Z,101784.25
2022-11-24T20:58:41.639Z,101805.34
2022-11-24T21:01:12.048Z,101801.81
2022-11-24T21:03:43.318Z,101786.03
2022-11-24T21:06:12.584Z,101780.72
2022-11-24T21:08:43.197Z,101805.34
2022-11-24T21:11:13.785Z,101784.25
2022-11-24T21:13:43.073Z,101803.59
2022-11-24T21:16:15.587Z,101822.03
2022-11-24T21:18:44.506Z,101770.19
2022-11-24T21:21:13.061Z,101777.22
2022-11-24T21:23:41.086Z,101793.03
2022-11-24T21:26:16.340Z,101822.94
2022-11-24T21:28:46.610Z,101836.13
2022-11-24T21:31:16.779Z,101815.00
2022-11-24T21:33:46.275Z,101804.47
2022-11-24T21:36:15.747Z,101847.56
2022-11-24T21:38:43.944Z,101842.28
2022-11-24T21:41:14.010Z,101817.69
2022-11-24T21:43:42.043Z,101800.06
2022-11-24T21:46:11.772Z,101782.47
2022-11-24T21:48:52.133Z,101713.03
2022-11-24T21:51:22.161Z,101709.50
2022-11-24T21:53:50.010Z,101715.66
2022-11-24T21:56:21.543Z,101738.47
2022-11-24T21:58:51.218Z,101740.22
2022-11-24T22:01:21.245Z,101794.75
2022-11-24T22:03:49.595Z,101795.59
2022-11-24T22:06:19.168Z,101794.72
2022-11-24T22:08:48.158Z,101793.81
2022-11-24T22:11:17.841Z,101792.91
2022-11-24T22:13:47.803Z,101748.03
2022-11-24T22:16:17.511Z,101724.22
2022-11-24T22:18:46.365Z,101691.63
2022-11-24T22:21:18.446Z,101646.72
2022-11-24T22:23:46.663Z,101604.47
2022-11-24T22:26:17.153Z,101539.38
2022-11-24T22:28:47.232Z,101509.41
2022-11-24T22:31:17.253Z,101476.00
2022-11-24T22:33:45.158Z,101443.47
2022-11-24T22:36:14.138Z,101481.25
2022-11-24T22:38:42.976Z,101453.13
2022-11-24T22:41:13.215Z,101425.91
2022-11-24T22:43:42.389Z,101399.53
2022-11-24T22:46:13.315Z,101423.22
2022-11-24T22:48:41.836Z,101436.38
2022-11-24T22:51:11.995Z,101424.06
2022-11-24T22:53:40.619Z,101466.22
2022-11-24T22:56:10.543Z,101417.88
2022-11-24T22:58:38.577Z,101414.31
2022-11-24T23:01:07.621Z,101384.41
2022-11-24T23:03:37.490Z,101402.00
2022-11-24T23:06:08.436Z,101422.16
2022-11-24T23:08:37.314Z,101382.59
2022-11-24T23:11:06.972Z,101419.47
2022-11-24T23:13:35.104Z,101394.88
2022-11-24T23:16:03.939Z,101385.13
2022-11-24T23:18:32.372Z,101412.38
2022-11-24T23:21:07.876Z,101398.25
2022-11-24T23:23:36.068Z,101411.41
2022-11-24T23:26:05.198Z,101372.66
2022-11-24T23:28:33.073Z,101363.84
2022-11-24T23:31:02.658Z,101369.94
2022-11-24T23:33:30.759Z,101372.53
2022-11-24T23:36:02.100Z,101352.28
2022-11-24T23:38:32.685Z,101341.66
2022-11-24T23:41:04.083Z,101318.75
2022-11-24T23:43:32.280Z,101309.94
2022-11-24T23:46:03.733Z,101239.63
2022-11-24T23:48:32.116Z,101223.09
2022-11-24T23:51:04.930Z,101236.34
2022-11-24T23:53:35.190Z,101240.81
2022-11-24T23:56:03.484Z,101266.38
2022-11-24T23:58:32.052Z,101327.00
